createdAt,value
2022-11-20T00:01:43.244Z,62.40
2022-11-20T00:04:13.270Z,62.40
2022-11-20T00:06:40.762Z,62.30
2022-11-20T00:09:13.921Z,62.30
2022-11-20T00:11:43.617Z,62.10
2022-11-20T00:14:10.947Z,62.60
2022-11-20T00:16:38.243Z,62.90
2022-11-20T00:19:05.368Z,62.50
2022-11-20T00:21:32.496Z,61.80
2022-11-20T00:23:59.928Z,61.10
2022-11-20T00:26:30.582Z,61.70
2022-11-20T00:28:59.948Z,61.40
2022-11-20T00:31:27.300Z,61.60
2022-11-20T00:33:54.693Z,60.80
2022-11-20T00:36:23.311Z,60.90
2022-11-20T00:38:54.534Z,60.50
2022-11-20T00:41:31.627Z,60.00
2022-11-20T00:43:58.888Z,59.50
2022-11-20T00:46:27.348Z,59.10
2022-11-20T00:48:54.632Z,59.40
2022-11-20T00:51:23.622Z,59.40
2022-11-20T00:53:51.171Z,59.40
2022-11-20T00:56:19.669Z,59.40
2022-11-20T00:58:48.373Z,59.20
2022-11-20T01:01:26.174Z,59.50
2022-11-20T01:03:55.729Z,59.50
2022-11-20T01:06:24.001Z,59.60
2022-11-20T01:08:52.283Z,58.90
2022-11-20T01:11:24.742Z,57.80
2022-11-20T01:13:52.258Z,57.00
2022-11-20T01:16:27.759Z,55.90
2022-11-20T01:19:04.159Z,55.20
2022-11-20T01:21:34.067Z,54.70
2022-11-20T01:24:01.623Z,55.10
2022-11-20T01:26:35.716Z,56.60
2022-11-20T01:29:03.057Z,56.20
2022-11-20T01:31:31.681Z,55.80
2022-11-20T01:34:00.428Z,54.70
2022-11-20T01:36:28.857Z,54.90
2022-11-20T01:38:57.126Z,54.60
2022-11-20T01:41:43.320Z,55.30
2022-11-20T01:44:11.791Z,56.20
2022-11-20T01:46:39.821Z,56.40
2022-11-20T01:49:20.423Z,56.00
2022-11-20T01:51:51.795Z,55.20
2022-11-20T01:54:21.085Z,55.00
2022-11-20T01:56:48.771Z,53.80
2022-11-20T01:59:17.011Z,54.40
2022-11-20T02:01:44.387Z,53.10
2022-11-20T02:04:11.728Z,52.70
2022-11-20T02:06:45.622Z,52.40
2022-11-20T02:09:13.265Z,52.20
2022-11-20T02:11:40.908Z,53.30
2022-11-20T02:14:08.282Z,53.20
2022-11-20T02:16:36.968Z,51.60
2022-11-20T02:19:07.324Z,50.60
2022-11-20T02:21:36.568Z,50.80
2022-11-20T02:24:04.798Z,50.60
2022-11-20T02:26:34.504Z,51.60
2022-11-20T02:29:02.327Z,51.40
2022-11-20T02:31:29.518Z,50.80
2022-11-20T02:33:57.900Z,50.90
2022-11-20T02:36:25.664Z,51.40
2022-11-20T02:38:52.970Z,52.10
2022-11-20T02:41:20.081Z,52.60
2022-11-20T02:43:47.226Z,52.40
2022-11-20T02:46:14.391Z,50.80
2022-11-20T02:48:41.639Z,50.80
2022-11-20T02:51:08.921Z,51.20
2022-11-20T02:53:36.148Z,49.50
2022-11-20T02:56:03.231Z,51.40
2022-11-20T02:58:30.426Z,50.40
2022-11-20T03:00:57.733Z,50.20
2022-11-20T03:03:24.876Z,48.40
2022-11-20T03:05:52.131Z,48.40
2022-11-20T03:08:19.323Z,49.50
2022-11-20T03:10:46.330Z,47.80
2022-11-20T03:13:13.581Z,48.40
2022-11-20T03:15:40.807Z,47.90
2022-11-20T03:18:07.886Z,48.70
2022-11-20T03:20:35.464Z,49.30
2022-11-20T03:23:02.946Z,49.70
2022-11-20T03:25:29.994Z,51.60
2022-11-20T03:27:57.206Z,50.00
2022-11-20T03:30:29.236Z,51.70
2022-11-20T03:32:57.687Z,51.70
2022-11-20T03:35:24.954Z,53.40
2022-11-20T03:37:52.003Z,53.10
2022-11-20T03:40:19.036Z,54.20
2022-11-20T03:42:46.287Z,54.90
2022-11-20T03:45:17.557Z,55.30
2022-11-20T03:47:45.097Z,56.50
2022-11-20T03:50:14.262Z,57.80
2022-11-20T03:52:41.552Z,58.70
2022-11-20T03:55:08.826Z,58.30
2022-11-20T03:57:36.764Z,59.20
2022-11-20T04:00:05.151Z,59.70
2022-11-20T04:02:32.245Z,60.00
2022-11-20T04:04:59.470Z,60.30
2022-11-20T04:07:26.553Z,61.20
2022-11-20T04:09:53.695Z,61.40
2022-11-20T04:12:21.057Z,61.20
2022-11-20T04:14:48.091Z,60.90
2022-11-20T04:17:15.124Z,59.60
2022-11-20T04:19:42.367Z,60.90
2022-11-20T04:22:09.781Z,62.30
2022-11-20T04:24:36.984Z,62.00
2022-11-20T04:27:04.236Z,63.20
2022-11-20T04:29:31.360Z,63.60
2022-11-20T04:31:58.459Z,63.50
2022-11-20T04:34:25.828Z,63.20
2022-11-20T04:36:53.011Z,64.30
2022-11-20T04:39:20.474Z,64.90
2022-11-20T04:41:48.127Z,65.60
2022-11-20T04:44:15.161Z,66.40
2022-11-20T04:46:42.868Z,66.40
2022-11-20T04:49:10.472Z,67.50
2022-11-20T04:51:37.555Z,67.30
2022-11-20T04:54:04.774Z,67.70
2022-11-20T04:56:32.103Z,68.20
2022-11-20T04:59:02.623Z,68.60
2022-11-20T05:01:29.945Z,69.00
2022-11-20T05:03:57.501Z,69.40
2022-11-20T05:06:24.806Z,69.60
2022-11-20T05:08:51.954Z,69.40
2022-11-20T05:11:21.245Z,69.70
2022-11-20T05:13:48.849Z,69.90
2022-11-20T05:16:20.978Z,69.70
2022-11-20T05:18:48.552Z,69.90
2022-11-20T05:21:15.770Z,70.00
2022-11-20T05:23:43.050Z,70.10
2022-11-20T05:26:14.205Z,69.80
2022-11-20T05:28:41.337Z,70.00
2022-11-20T05:31:17.325Z,70.30
2022-11-20T05:33:47.059Z,70.50
2022-11-20T05:36:14.749Z,70.60
2022-11-20T05:38:42.473Z,71.30
2022-11-20T05:41:14.162Z,71.30
2022-11-20T05:43:42.887Z,71.40
2022-11-20T05:46:12.252Z,71.50
2022-11-20T05:48:40.455Z,71.50
2022-11-20T05:51:08.547Z,71.80
2022-11-20T05:53:36.427Z,71.70
2022-11-20T05:56:07.323Z,71.80
2022-11-20T05:58:34.532Z,71.70
2022-11-20T06:01:13.245Z,71.90
2022-11-20T06:03:41.038Z,71.70
2022-11-20T06:06:08.272Z,71.80
2022-11-20T06:08:35.540Z,71.90
2022-11-20T06:11:07.049Z,72.00
2022-11-20T06:13:37.953Z,71.60
2022-11-20T06:16:08.188Z,71.50
2022-11-20T06:18:35.295Z,71.50
2022-11-20T06:21:06.842Z,71.30
2022-11-20T06:23:34.560Z,71.60
2022-11-20T06:26:09.818Z,71.70
2022-11-20T06:28:37.267Z,72.00
2022-11-20T06:31:04.628Z,72.60
2022-11-20T06:33:31.684Z,72.30
2022-11-20T06:36:01.669Z,72.60
2022-11-20T06:38:30.739Z,73.10
2022-11-20T06:40:57.788Z,73.20
2022-11-20T06:43:25.289Z,73.30
2022-11-20T06:45:59.156Z,73.40
2022-11-20T06:48:27.751Z,73.60
2022-11-20T06:50:54.814Z,73.80
2022-11-20T06:53:22.433Z,73.90
2022-11-20T06:55:49.942Z,74.30
2022-11-20T06:58:17.208Z,74.30
2022-11-20T07:00:44.386Z,74.40
2022-11-20T07:03:12.235Z,74.80
2022-11-20T07:05:42.357Z,74.70
2022-11-20T07:08:09.769Z,74.80
2022-11-20T07:10:37.070Z,74.70
2022-11-20T07:13:04.134Z,74.90
2022-11-20T07:15:31.258Z,74.80
2022-11-20T07:18:01.536Z,74.80
2022-11-20T07:20:28.807Z,74.90
2022-11-20T07:22:56.879Z,74.90
2022-11-20T07:25:24.867Z,74.70
2022-11-20T07:27:52.017Z,75.00
2022-11-20T07:30:19.458Z,74.80
2022-11-20T07:32:52.649Z,75.00
2022-11-20T07:35:20.014Z,74.90
2022-11-20T07:37:48.294Z,75.00
2022-11-20T07:40:16.122Z,75.20
2022-11-20T07:42:53.701Z,74.70
2022-11-20T07:45:21.769Z,75.10
2022-11-20T07:47:49.271Z,74.90
2022-11-20T07:53:07.900Z,75.30
2022-11-20T07:55:35.244Z,75.40
2022-11-20T07:58:02.368Z,75.50
2022-11-20T08:00:29.502Z,75.40
2022-11-20T08:03:01.558Z,75.20
2022-11-20T08:05:28.673Z,75.40
2022-11-20T08:07:55.799Z,75.50
2022-11-20T08:10:23.184Z,75.50
2022-11-20T08:13:10.758Z,75.30
2022-11-20T08:15:38.627Z,75.50
2022-11-20T08:20:57.632Z,75.30
2022-11-20T08:23:24.974Z,75.50
2022-11-20T08:25:52.417Z,75.70
2022-11-20T08:28:21.806Z,75.50
2022-11-20T08:30:50.377Z,75.40
2022-11-20T08:33:18.470Z,75.20
2022-11-20T08:35:45.910Z,75.50
2022-11-20T08:38:13.005Z,75.30
2022-11-20T08:40:40.308Z,75.30
2022-11-20T08:43:07.516Z,75.50
2022-11-20T08:45:35.571Z,75.30
2022-11-20T08:48:03.787Z,75.60
2022-11-20T08:50:33.460Z,75.30
2022-11-20T08:53:07.190Z,75.40
2022-11-20T08:55:36.852Z,75.40
2022-11-20T08:58:07.418Z,75.10
2022-11-20T09:00:34.646Z,75.00
2022-11-20T09:03:02.533Z,74.80
2022-11-20T09:05:39.172Z,74.70
2022-11-20T09:08:07.630Z,74.90
2022-11-20T09:10:34.929Z,74.60
2022-11-20T09:13:07.647Z,74.60
2022-11-20T09:15:35.285Z,74.40
2022-11-20T09:18:03.604Z,73.80
2022-11-20T09:20:30.996Z,73.60
2022-11-20T09:22:58.586Z,73.40
2022-11-20T09:25:25.661Z,73.30
2022-11-20T09:27:59.479Z,71.80
2022-11-20T09:30:26.982Z,72.50
2022-11-20T09:32:54.340Z,73.10
2022-11-20T09:35:21.655Z,73.00
2022-11-20T09:37:48.910Z,72.70
2022-11-20T09:40:35.904Z,73.10
2022-11-20T09:43:19.437Z,73.70
2022-11-20T09:46:11.725Z,73.70
2022-11-20T09:48:44.615Z,74.00
2022-11-20T09:51:28.455Z,74.20
2022-11-20T09:54:16.904Z,74.20
2022-11-20T09:57:00.979Z,73.80
2022-11-20T09:59:37.977Z,74.10
2022-11-20T10:02:30.496Z,73.30
2022-11-20T10:05:24.011Z,73.00
2022-11-20T10:08:03.319Z,73.30
2022-11-20T10:10:37.410Z,72.80
2022-11-20T10:13:45.740Z,72.60
2022-11-20T10:16:30.985Z,72.80
2022-11-20T10:19:05.335Z,73.00
2022-11-20T10:21:42.196Z,72.30
2022-11-20T10:24:28.895Z,72.20
2022-11-20T10:27:24.356Z,72.10
2022-11-20T10:30:11.339Z,71.60
2022-11-20T10:32:48.965Z,71.20
2022-11-20T10:36:00.934Z,71.80
2022-11-20T10:38:35.474Z,71.40
2022-11-20T10:41:21.899Z,71.80
2022-11-20T10:43:49.562Z,71.60
2022-11-20T10:46:25.805Z,71.10
2022-11-20T10:48:53.157Z,69.00
2022-11-20T10:51:41.189Z,68.80
2022-11-20T10:54:18.904Z,67.90
2022-11-20T10:56:51.486Z,69.20
2022-11-20T10:59:40.080Z,68.70
2022-11-20T11:02:32.558Z,68.60
2022-11-20T11:04:59.619Z,66.00
2022-11-20T11:07:36.514Z,65.10
2022-11-20T11:10:35.900Z,64.40
2022-11-20T11:13:03.216Z,62.60
2022-11-20T11:15:38.153Z,61.80
2022-11-20T11:18:05.488Z,61.40
2022-11-20T11:20:33.530Z,61.50
2022-11-20T11:23:00.775Z,63.30
2022-11-20T11:25:30.668Z,60.40
2022-11-20T11:28:00.241Z,59.50
2022-11-20T11:30:28.878Z,62.10
2022-11-20T11:33:07.582Z,61.40
2022-11-20T11:35:34.897Z,59.40
2022-11-20T11:38:08.367Z,60.50
2022-11-20T11:40:36.627Z,59.10
2022-11-20T11:43:27.625Z,58.80
2022-11-20T11:45:57.481Z,59.30
2022-11-20T11:48:50.807Z,57.90
2022-11-20T11:51:21.958Z,56.30
2022-11-20T11:54:07.919Z,53.00
2022-11-20T11:56:43.071Z,55.70
2022-11-20T11:59:14.048Z,52.00
2022-11-20T12:01:51.256Z,53.10
2022-11-20T12:04:44.257Z,52.20
2022-11-20T12:07:50.067Z,53.90
2022-11-20T12:10:24.847Z,51.80
2022-11-20T12:13:16.705Z,50.60
2022-11-20T12:15:47.217Z,47.50
2022-11-20T12:18:22.398Z,43.60
2022-11-20T12:21:17.270Z,44.60
2022-11-20T12:24:27.394Z,42.80
2022-11-20T12:27:22.215Z,45.50
2022-11-20T12:30:06.099Z,46.70
2022-11-20T12:33:05.433Z,45.80
2022-11-20T12:36:10.019Z,44.20
2022-11-20T12:39:01.186Z,44.70
2022-11-20T12:42:10.257Z,44.50
2022-11-20T12:45:13.101Z,42.20
2022-11-20T12:47:58.795Z,43.90
2022-11-20T12:51:14.492Z,39.50
2022-11-20T12:53:58.118Z,41.90
2022-11-20T12:56:51.416Z,40.20
2022-11-20T12:59:37.380Z,36.60
2022-11-20T13:02:27.646Z,38.30
2022-11-20T13:05:03.110Z,36.60
2022-11-20T13:07:30.812Z,34.80
2022-11-20T13:09:58.044Z,37.40
2022-11-20T13:12:26.785Z,38.20
2022-11-20T13:15:21.793Z,35.50
2022-11-20T13:18:12.030Z,33.90
2022-11-20T13:20:43.685Z,34.30
2022-11-20T13:23:27.093Z,32.40
2022-11-20T13:26:23.388Z,31.80
2022-11-20T13:29:04.097Z,32.20
2022-11-20T13:31:36.290Z,34.50
2022-11-20T13:34:05.361Z,31.80
2022-11-20T13:36:33.504Z,33.00
2022-11-20T13:39:00.922Z,31.70
2022-11-20T13:41:29.335Z,29.40
2022-11-20T13:44:19.863Z,28.20
2022-11-20T13:46:47.813Z,29.90
2022-11-20T13:49:28.027Z,31.40
2022-11-20T13:52:41.661Z,30.50
2022-11-20T13:55:16.281Z,29.00
2022-11-20T13:58:07.118Z,28.60
2022-11-20T14:00:34.212Z,30.10
2022-11-20T14:03:07.512Z,29.90
2022-11-20T14:05:41.072Z,31.20
2022-11-20T14:08:11.976Z,30.60
2022-11-20T14:10:40.763Z,31.80
2022-11-20T14:13:21.519Z,31.80
2022-11-20T14:15:48.671Z,31.50
2022-11-20T14:18:20.798Z,31.70
2022-11-20T14:20:48.195Z,32.30
2022-11-20T14:23:29.469Z,32.20
2022-11-20T14:25:57.659Z,32.50
2022-11-20T14:28:34.016Z,32.40
2022-11-20T14:31:01.354Z,32.40
2022-11-20T14:33:28.464Z,32.20
2022-11-20T14:35:56.893Z,32.60
2022-11-20T14:38:29.150Z,32.70
2022-11-20T14:41:25.505Z,30.90
2022-11-20T14:44:00.043Z,30.80
2022-11-20T14:46:37.084Z,32.40
2022-11-20T14:49:08.255Z,32.10
2022-11-20T14:51:41.846Z,33.00
2022-11-20T14:54:17.903Z,34.00
2022-11-20T15:00:24.629Z,33.30
2022-11-20T15:02:52.758Z,35.80
2022-11-20T15:05:22.108Z,32.70
2022-11-20T15:08:07.364Z,32.60
2022-11-20T15:10:34.707Z,36.10
2022-11-20T15:13:08.371Z,38.10
2022-11-20T15:15:49.407Z,38.00
2022-11-20T15:18:29.763Z,37.30
2022-11-20T15:21:03.639Z,36.40
2022-11-20T15:23:31.208Z,37.00
2022-11-20T15:25:58.322Z,37.10
2022-11-20T15:28:51.426Z,38.00
2022-11-20T15:31:50.404Z,39.30
2022-11-20T15:34:43.928Z,41.40
2022-11-20T15:37:50.906Z,44.20
2022-11-20T15:40:18.232Z,42.50
2022-11-20T15:43:12.548Z,41.40
2022-11-20T15:46:12.914Z,43.00
2022-11-20T15:48:47.947Z,41.00
2022-11-20T15:51:34.623Z,41.00
2022-11-20T15:54:03.236Z,40.80
2022-11-20T15:56:30.838Z,40.40
2022-11-20T15:58:58.076Z,41.00
2022-11-20T16:01:25.484Z,39.30
2022-11-20T16:03:53.050Z,40.40
2022-11-20T16:06:20.598Z,40.50
2022-11-20T16:08:48.817Z,44.40
2022-11-20T16:11:17.319Z,44.50
2022-11-20T16:14:35.758Z,42.80
2022-11-20T16:17:03.821Z,43.70
2022-11-20T16:19:31.122Z,44.30
2022-11-20T16:22:04.836Z,44.90
2022-11-20T16:24:49.806Z,43.40
2022-11-20T16:27:17.198Z,44.70
2022-11-20T16:29:44.427Z,44.00
2022-11-20T16:32:13.396Z,46.30
2022-11-20T16:34:41.600Z,43.30
2022-11-20T16:37:08.819Z,44.30
2022-11-20T16:39:36.031Z,44.20
2022-11-20T16:42:06.580Z,45.60
2022-11-20T16:44:34.964Z,44.10
2022-11-20T16:47:02.298Z,44.80
2022-11-20T16:49:32.840Z,45.40
2022-11-20T16:52:00.383Z,43.80
2022-11-20T16:54:28.029Z,45.30
2022-11-20T16:56:55.811Z,43.70
2022-11-20T17:02:18.063Z,44.20
2022-11-20T17:04:45.610Z,44.50
2022-11-20T17:07:14.109Z,45.00
2022-11-20T17:09:46.221Z,44.80
2022-11-20T17:12:13.670Z,45.40
2022-11-20T17:14:41.640Z,45.30
2022-11-20T17:17:09.181Z,44.90
2022-11-20T17:19:38.003Z,45.00
2022-11-20T17:22:05.267Z,45.00
2022-11-20T17:24:32.664Z,44.00
2022-11-20T17:27:01.957Z,45.10
2022-11-20T17:30:39.939Z,45.00
2022-11-20T17:33:07.377Z,44.80
2022-11-20T17:35:36.770Z,46.30
2022-11-20T17:38:04.028Z,46.00
2022-11-20T17:40:33.593Z,46.90
2022-11-20T17:43:00.729Z,47.00
2022-11-20T17:45:28.204Z,47.40
2022-11-20T17:47:58.158Z,47.60
2022-11-20T17:50:25.384Z,49.10
2022-11-20T17:52:52.573Z,49.60
2022-11-20T17:55:19.806Z,48.80
2022-11-20T17:57:53.094Z,49.40
2022-11-20T18:00:21.392Z,49.40
2022-11-20T18:02:48.721Z,50.50
2022-11-20T18:05:15.977Z,51.30
2022-11-20T18:07:43.430Z,51.60
2022-11-20T18:10:13.655Z,52.00
2022-11-20T18:12:57.603Z,53.30
2022-11-20T18:15:24.905Z,53.60
2022-11-20T18:17:52.607Z,54.30
2022-11-20T18:20:30.506Z,54.60
2022-11-20T18:23:00.292Z,54.70
2022-11-20T18:25:27.641Z,54.80
2022-11-20T18:28:10.943Z,55.80
2022-11-20T18:30:42.949Z,55.60
2022-11-20T18:33:10.686Z,56.30
2022-11-20T18:35:37.824Z,56.80
2022-11-20T18:38:05.201Z,57.60
2022-11-20T18:47:40.508Z,58.40
2022-11-20T18:50:08.853Z,59.10
2022-11-20T18:52:42.039Z,59.20
2022-11-20T18:55:12.960Z,59.80
2022-11-20T18:57:43.057Z,59.20
2022-11-20T19:00:13.923Z,59.40
2022-11-20T19:02:44.549Z,60.30
2022-11-20T19:05:12.621Z,60.10
2022-11-20T19:07:39.962Z,59.90
2022-11-20T19:10:07.439Z,60.20
2022-11-20T19:12:35.391Z,60.30
2022-11-20T19:15:02.853Z,60.20
2022-11-20T19:17:35.512Z,60.50
2022-11-20T19:20:02.837Z,60.60
2022-11-20T19:22:30.076Z,60.60
2022-11-20T19:24:57.331Z,60.50
2022-11-20T19:27:24.542Z,60.60
2022-11-20T19:29:51.855Z,61.00
2022-11-20T19:32:19.307Z,61.30
2022-11-20T19:34:49.043Z,61.80
2022-11-20T19:37:16.469Z,61.80
2022-11-20T19:40:12.406Z,62.00
2022-11-20T19:42:39.962Z,62.20
2022-11-20T19:45:07.927Z,62.30
2022-11-20T19:48:06.003Z,62.30
2022-11-20T19:50:22.493Z,62.40
2022-11-20T19:52:53.065Z,62.50
2022-11-20T19:55:23.104Z,62.80
2022-11-20T19:57:50.343Z,62.60
2022-11-20T20:00:23.048Z,62.00
2022-11-20T20:02:54.146Z,61.70
2022-11-20T20:05:21.216Z,61.30
2022-11-20T20:07:48.870Z,61.40
2022-11-20T20:10:18.360Z,61.00
2022-11-20T20:12:45.420Z,60.60
2022-11-20T20:15:12.515Z,61.30
2022-11-20T20:17:39.985Z,62.40
2022-11-20T20:20:07.484Z,62.10
2022-11-20T20:22:34.584Z,61.80
2022-11-20T20:25:01.945Z,62.00
2022-11-20T20:27:29.162Z,62.10
2022-11-20T20:29:57.437Z,62.00
2022-11-20T20:32:26.119Z,62.20
2022-11-20T20:34:53.318Z,62.40
2022-11-20T20:37:21.063Z,62.80
2022-11-20T20:39:57.745Z,62.00
2022-11-20T20:42:29.852Z,62.40
2022-11-20T20:45:11.372Z,62.20
2022-11-20T20:47:42.195Z,63.00
2022-11-20T20:53:03.299Z,62.80
2022-11-20T20:55:30.815Z,62.60
2022-11-20T20:57:58.676Z,62.20
2022-11-20T21:00:26.055Z,62.80
2022-11-20T21:02:53.578Z,63.10
2022-11-20T21:05:22.453Z,63.40
2022-11-20T21:08:08.417Z,63.70
2022-11-20T21:10:55.870Z,63.80
2022-11-20T21:13:29.774Z,63.80
2022-11-20T21:15:57.663Z,63.70
2022-11-20T21:18:36.844Z,64.10
2022-11-20T21:21:33.457Z,64.70
2022-11-20T21:24:04.458Z,66.00
2022-11-20T21:26:45.818Z,65.30
2022-11-20T21:29:13.077Z,65.80
2022-11-20T21:31:43.554Z,66.10
2022-11-20T21:34:14.298Z,65.60
2022-11-20T21:36:41.941Z,65.40
2022-11-20T21:39:11.449Z,65.00
2022-11-20T21:41:38.827Z,64.70
2022-11-20T21:44:30.015Z,64.70
2022-11-20T21:46:54.425Z,64.40
2022-11-20T21:49:21.922Z,64.50
2022-11-20T21:51:49.547Z,65.20
2022-11-20T21:54:20.772Z,65.10
2022-11-20T21:56:58.597Z,64.70
2022-11-20T21:59:27.600Z,65.90
2022-11-20T22:01:58.398Z,65.80
2022-11-20T22:04:30.704Z,66.00
2022-11-20T22:09:53.666Z,66.10
2022-11-20T22:12:33.167Z,65.90
2022-11-20T22:15:04.769Z,66.20
2022-11-20T22:17:51.240Z,66.20
2022-11-20T22:20:26.386Z,66.20
2022-11-20T22:22:59.833Z,66.20
2022-11-20T22:25:27.345Z,66.20
2022-11-20T22:27:55.109Z,65.20
2022-11-20T22:30:22.823Z,64.70
2022-11-20T22:32:50.643Z,64.30
2022-11-20T22:35:18.113Z,63.30
2022-11-20T22:37:45.463Z,63.20
2022-11-20T22:40:25.919Z,62.30
2022-11-20T22:42:53.267Z,61.90
2022-11-20T22:45:45.974Z,62.00
2022-11-20T22:48:23.294Z,61.60
2022-11-20T22:50:54.079Z,61.10
2022-11-20T22:53:21.675Z,60.00
2022-11-20T22:55:52.547Z,60.60
2022-11-20T22:58:20.058Z,60.30
2022-11-20T23:00:49.938Z,60.60
2022-11-20T23:03:20.851Z,59.90
2022-11-20T23:05:48.484Z,60.60
2022-11-20T23:08:15.802Z,60.10
2022-11-20T23:10:43.279Z,59.40
2022-11-20T23:13:13.754Z,59.30
2022-11-20T23:15:41.199Z,58.80
2022-11-20T23:18:08.457Z,59.00
2022-11-20T23:20:36.843Z,58.40
2022-11-20T23:23:04.102Z,58.30
2022-11-20T23:25:33.742Z,58.60
2022-11-20T23:28:01.092Z,57.80
2022-11-20T23:30:28.393Z,58.30
2022-11-20T23:32:55.540Z,58.10
2022-11-20T23:35:22.758Z,57.60
2022-11-20T23:37:49.959Z,58.40
2022-11-20T23:40:17.236Z,57.50
2022-11-20T23:43:04.449Z,57.20
2022-11-20T23:45:37.371Z,57.50
2022-11-20T23:48:04.917Z,57.30
2022-11-20T23:50:32.431Z,57.80
2022-11-20T23:53:14.326Z,56.40
2022-11-20T23:55:51.550Z,56.90
2022-11-20T23:58:18.889Z,55.70
